Time;durP1;ratioP1;P1;durP2;ratioP2;P2;SDS_P1;SDS_P2;PMS_P1;PMS_P2;Temp;Humidity;BMP_temperature;BMP_pressure;BME280_temperature;BME280_humidity;BME280_pressure;Samples;Min_cycle;Max_cycle;Signal;HPM_P1;HPM_P2
2022/10/09 19:57:36;;;;;;;8.87;4.80;;;;;;;10.88;64.21;101416.38;6283274;22;1766781;-82
2022/10/09 20:00:03;;;;;;;7.82;4.97;;;;;;;10.84;64.52;101423.63;6338910;22;20245;-83
2022/10/09 20:02:28;;;;;;;7.47;4.90;;;;;;;10.85;64.70;101428.00;6338614;22;20466;-83
2022/10/09 20:04:53;;;;;;;6.75;4.82;;;;;;;10.79;64.85;101420.28;6310819;22;20007;-82
2022/10/09 20:07:19;;;;;;;7.25;5.60;;;;;;;10.78;65.03;101426.53;6337935;22;20060;-82
2022/10/09 20:09:44;;;;;;;9.38;5.88;;;;;;;10.69;64.90;101424.25;6336162;22;20003;-83
2022/10/09 20:12:10;;;;;;;9.95;5.30;;;;;;;10.70;65.40;101433.97;6308172;22;20487;-83
2022/10/09 20:14:35;;;;;;;6.93;5.05;;;;;;;10.61;65.51;101429.91;6337545;22;20317;-82
2022/10/09 20:17:00;;;;;;;6.28;5.03;;;;;;;10.57;66.10;101424.78;6335500;22;20003;-82
2022/10/09 20:19:29;;;;;;;9.90;6.03;;;;;;;10.58;65.88;101434.50;6336153;22;20327;-82
2022/10/09 20:21:55;;;;;;;7.10;5.22;;;;;;;10.58;66.16;101431.84;6308884;22;20003;-82
2022/10/09 20:24:20;;;;;;;9.02;5.60;;;;;;;10.44;66.46;101427.94;6333021;22;20851;-82
2022/10/09 20:26:46;;;;;;;6.65;5.72;;;;;;;10.49;66.18;101433.06;6336060;22;20320;-83
2022/10/09 20:29:11;;;;;;;8.57;5.53;;;;;;;10.44;66.51;101425.28;6332668;22;20038;-83
2022/10/09 20:31:37;;;;;;;8.48;5.85;;;;;;;10.40;67.11;101429.00;6334524;22;20003;-83
2022/10/09 20:34:02;;;;;;;7.70;5.32;;;;;;;10.32;67.13;101425.78;6333586;22;20002;-83
2022/10/09 20:36:30;;;;;;;7.88;6.03;;;;;;;10.25;67.33;101426.09;6335100;22;20010;-83
2022/10/09 20:38:58;;;;;;;7.82;5.70;;;;;;;10.20;67.56;101418.28;6334241;22;20007;-83
2022/10/09 20:41:25;;;;;;;10.70;5.97;;;;;;;10.17;67.86;101416.59;6304734;22;20180;-83
2022/10/09 20:43:52;;;;;;;8.02;6.03;;;;;;;10.12;67.90;101415.06;6306920;22;20003;-83
2022/10/09 20:46:20;;;;;;;10.13;6.05;;;;;;;10.08;68.27;101416.09;6334326;22;20032;-83
2022/10/09 20:48:45;;;;;;;7.75;5.80;;;;;;;10.03;68.69;101410.94;6333046;22;20003;-82
2022/10/09 20:51:11;;;;;;;8.40;6.15;;;;;;;9.96;69.09;101405.00;6334051;22;20002;-82
2022/10/09 20:53:36;;;;;;;10.02;6.13;;;;;;;9.93;69.57;101406.94;6335118;22;20010;-82
2022/10/09 20:56:08;;;;;;;6.80;5.78;;;;;;;9.87;69.24;101401.88;6307930;22;20041;-81
2022/10/09 20:58:34;;;;;;;7.25;5.53;;;;;;;9.78;69.32;101394.22;6335815;22;20045;-82
2022/10/09 21:01:03;;;;;;;10.77;5.88;;;;;;;9.80;69.85;101398.56;6335964;22;20002;-81
2022/10/09 21:03:29;;;;;;;7.45;6.15;;;;;;;9.79;69.79;101394.19;6307794;22;20007;-81
2022/10/09 21:05:54;;;;;;;8.82;5.68;;;;;;;9.72;70.03;101387.34;6309166;22;20017;-81
2022/10/09 21:08:19;;;;;;;8.32;6.50;;;;;;;9.69;70.05;101396.31;6333689;22;20083;-81
2022/10/09 21:10:46;;;;;;;6.63;5.85;;;;;;;9.62;70.13;101391.31;6307816;22;20416;-81
2022/10/09 21:13:12;;;;;;;9.20;6.13;;;;;;;9.56;70.61;101399.50;6337590;22;19998;-82
2022/10/09 21:15:43;;;;;;;9.07;6.53;;;;;;;9.57;70.78;101395.91;6336016;22;20008;-81
2022/10/09 21:18:09;;;;;;;8.48;6.55;;;;;;;9.51;71.45;101390.84;6337834;22;20062;-82
2022/10/09 21:20:39;;;;;;;10.65;6.30;;;;;;;9.46;71.28;101388.34;6338596;22;19998;-82
2022/10/09 21:23:04;;;;;;;8.27;7.07;;;;;;;9.41;71.67;101385.00;6336827;22;19999;-82
2022/10/09 21:25:30;;;;;;;7.75;6.72;;;;;;;9.29;71.78;101375.69;6338995;22;20013;-82
2022/10/09 21:27:55;;;;;;;10.05;6.60;;;;;;;9.30;71.97;101381.88;6337763;22;20003;-82
2022/10/09 21:30:20;;;;;;;8.85;7.03;;;;;;;9.24;72.40;101369.69;6336689;22;20103;-82
2022/10/09 21:32:45;;;;;;;9.38;6.95;;;;;;;9.16;72.78;101366.47;6337174;22;19983;-82
2022/10/09 21:35:11;;;;;;;9.68;7.10;;;;;;;9.15;72.70;101370.00;6309060;22;20332;-82
2022/10/09 21:37:36;;;;;;;9.95;6.30;;;;;;;9.18;72.67;101372.56;6336039;22;20009;-82
2022/10/09 21:40:02;;;;;;;9.00;6.80;;;;;;;9.12;72.98;101378.97;6336525;22;20006;-81
2022/10/09 21:42:28;;;;;;;8.32;6.80;;;;;;;9.11;72.90;101381.66;6309151;22;19999;-82
2022/10/09 21:44:53;;;;;;;8.85;7.03;;;;;;;9.01;74.06;101374.97;6337155;22;20056;-81
2022/10/09 21:47:18;;;;;;;9.20;7.63;;;;;;;8.99;73.69;101375.03;6335127;22;20075;-82
2022/10/09 21:49:43;;;;;;;10.13;7.43;;;;;;;8.93;73.90;101367.28;6335913;22;20041;-82
2022/10/09 21:52:09;;;;;;;11.23;8.00;;;;;;;8.90;73.98;101370.03;6309265;22;20348;-82
2022/10/09 21:54:35;;;;;;;9.10;8.13;;;;;;;8.84;74.48;101368.47;6335844;22;20003;-82
2022/10/09 21:57:00;;;;;;;9.23;7.90;;;;;;;8.78;74.56;101363.38;6336338;22;20006;-82
2022/10/09 21:59:26;;;;;;;13.02;8.38;;;;;;;8.73;75.25;101355.56;6309521;22;20015;-82
2022/10/09 22:01:51;;;;;;;9.88;8.45;;;;;;;8.72;75.05;101358.28;6309637;22;20010;-82
2022/10/09 22:04:17;;;;;;;10.50;7.97;;;;;;;8.65;75.13;101362.06;6336460;22;20480;-81
2022/10/09 22:06:42;;;;;;;8.40;7.55;;;;;;;8.65;75.13;101356.75;6337007;22;20003;-82
2022/10/09 22:09:09;;;;;;;10.48;8.32;;;;;;;8.57;75.55;101359.69;6336611;22;20125;-82
2022/10/09 22:11:34;;;;;;;9.93;8.10;;;;;;;8.63;75.43;101358.59;6341377;22;20002;-82
2022/10/09 22:13:59;;;;;;;10.35;8.10;;;;;;;8.55;75.77;101356.22;6339018;22;19999;-82
2022/10/09 22:16:24;;;;;;;9.73;8.00;;;;;;;8.50;75.78;101354.63;6337319;22;20032;-82
2022/10/09 22:18:50;;;;;;;9.00;7.65;;;;;;;8.46;76.41;101356.53;6337587;22;20006;-81
2022/10/09 22:21:16;;;;;;;9.38;7.55;;;;;;;8.46;76.30;101346.78;6350720;22;20006;-82
2022/10/09 22:23:41;;;;;;;8.90;7.47;;;;;;;8.46;76.85;101343.25;6359634;22;20003;-82
2022/10/09 22:26:12;;;;;;;10.13;7.55;;;;;;;8.47;76.68;101345.00;6358295;22;20112;-82
2022/10/09 22:28:37;;;;;;;10.13;7.68;;;;;;;8.39;76.96;101328.47;6356956;22;20027;-82
2022/10/09 22:31:06;;;;;;;9.50;8.43;;;;;;;8.36;77.32;101334.72;6337026;22;20430;-81
2022/10/09 22:33:32;;;;;;;10.90;7.80;;;;;;;8.36;77.35;101337.38;6336414;22;20010;-82
2022/10/09 22:36:17;;;;;;;12.30;7.47;;;;;;;8.32;76.91;101326.91;6336932;22;20015;-82
2022/10/09 22:38:43;;;;;;;9.40;8.13;;;;;;;8.27;77.45;101334.16;6337389;22;20049;-82
2022/10/09 22:41:14;;;;;;;9.32;7.22;;;;;;;8.21;78.13;101329.94;6309833;22;20002;-82
2022/10/09 22:43:41;;;;;;;11.23;7.80;;;;;;;8.13;78.44;101338.13;6339081;22;20114;-81
2022/10/09 22:46:14;;;;;;;8.80;7.80;;;;;;;8.14;77.97;101325.75;6337167;22;20003;-81
2022/10/09 22:48:40;;;;;;;10.02;8.50;;;;;;;8.11;78.48;101331.13;6335014;22;20110;-81
2022/10/09 22:51:09;;;;;;;11.68;8.10;;;;;;;8.10;78.54;101332.91;6333537;22;20003;-81
2022/10/09 22:53:36;;;;;;;10.48;7.57;;;;;;;8.08;78.94;101324.16;6306508;22;20003;-82
2022/10/09 22:56:06;;;;;;;10.35;8.20;;;;;;;8.07;78.99;101324.19;6334280;22;20024;-81
2022/10/09 22:58:32;;;;;;;12.15;8.27;;;;;;;8.02;78.83;101319.03;6334369;22;20063;-82
2022/10/09 23:01:01;;;;;;;10.70;7.90;;;;;;;7.99;79.19;101319.16;6335297;22;20725;-81
2022/10/09 23:03:27;;;;;;;10.40;8.13;;;;;;;7.95;78.97;101318.41;6334393;22;20007;-81
2022/10/09 23:05:52;;;;;;;12.00;8.75;;;;;;;7.86;79.58;101316.03;6336178;22;20005;-82
2022/10/09 23:08:17;;;;;;;8.80;7.90;;;;;;;7.83;79.93;101320.56;6337512;22;20192;-82
2022/10/09 23:10:43;;;;;;;10.70;8.48;;;;;;;7.76;79.97;101326.97;6306043;22;20006;-82
2022/10/09 23:13:08;;;;;;;8.82;7.68;;;;;;;7.70;80.25;101320.97;6336985;22;20002;-82
2022/10/09 23:15:36;;;;;;;9.27;7.82;;;;;;;7.71;80.33;101324.47;6336580;22;20007;-82
2022/10/09 23:18:03;;;;;;;9.68;8.48;;;;;;;7.69;80.53;101321.00;6309143;22;20051;-82
2022/10/09 23:20:29;;;;;;;10.00;8.10;;;;;;;7.65;80.38;101309.66;6335797;22;19999;-82
2022/10/09 23:22:54;;;;;;;10.35;8.48;;;;;;;7.62;80.45;101314.16;6336155;22;19987;-82
2022/10/09 23:25:19;;;;;;;10.60;8.80;;;;;;;7.62;80.66;101308.88;6334546;22;20086;-82
2022/10/09 23:27:45;;;;;;;9.85;8.20;;;;;;;7.62;80.69;101308.88;6330566;22;20044;-82
2022/10/09 23:30:10;;;;;;;8.98;7.88;;;;;;;7.62;80.95;101308.88;6335678;22;20010;-82
2022/10/09 23:32:36;;;;;;;10.00;8.07;;;;;;;7.61;81.22;101305.34;6308075;22;20049;-82
2022/10/09 23:35:01;;;;;;;10.63;8.30;;;;;;;7.58;81.19;101301.94;6337295;22;20006;-81
2022/10/09 23:37:26;;;;;;;11.43;8.18;;;;;;;7.54;81.17;101298.50;6336148;22;19998;-81
2022/10/09 23:39:52;;;;;;;9.70;8.70;;;;;;;7.55;81.10;101300.22;6336665;22;19995;-82
2022/10/09 23:42:17;;;;;;;9.20;8.20;;;;;;;7.53;81.65;101299.44;6333820;22;20009;-81
2022/10/09 23:44:42;;;;;;;11.43;8.02;;;;;;;7.41;81.79;101295.38;6337199;22;20332;-82
2022/10/09 23:47:07;;;;;;;8.77;7.88;;;;;;;7.45;81.80;101301.44;6335319;22;20010;-82
2022/10/09 23:49:33;;;;;;;10.02;8.32;;;;;;;7.40;82.29;101295.44;6337255;22;20439;-82
2022/10/09 23:51:58;;;;;;;10.43;8.82;;;;;;;7.36;81.88;101291.13;6337118;22;20002;-81
2022/10/09 23:54:23;;;;;;;10.60;8.25;;;;;;;7.34;81.97;101292.94;6337231;22;20002;-82
2022/10/09 23:56:48;;;;;;;11.95;8.63;;;;;;;7.34;82.34;101293.81;6337305;22;20006;-82
2022/10/09 23:59:14;;;;;;;9.90;8.50;;;;;;;7.21;82.64;101276.56;6334678;22;20067;-82
